createdAt,value
2022-11-25T00:02:20.568Z,100229.66
2022-11-25T00:04:48.124Z,100226.41
2022-11-25T00:07:15.653Z,100228.47
2022-11-25T00:09:42.969Z,100231.59
2022-11-25T00:12:10.326Z,100231.53
2022-11-25T00:14:37.925Z,100229.38
2022-11-25T00:17:05.729Z,100227.44
2022-11-25T00:19:33.768Z,100232.47
2022-11-25T00:22:01.186Z,100224.34
2022-11-25T00:24:28.548Z,100232.47
2022-11-25T00:26:56.158Z,100226.88
2022-11-25T00:29:23.701Z,100229.56
2022-11-25T00:31:51.097Z,100236.66
2022-11-25T00:34:19.537Z,100230.84
2022-11-25T00:36:47.164Z,100231.84
2022-11-25T00:39:15.243Z,100229.31
2022-11-25T00:42:02.329Z,100244.00
2022-11-25T00:44:37.164Z,100242.84
2022-11-25T00:47:05.776Z,100258.44
2022-11-25T00:49:33.171Z,100265.16
2022-11-25T00:52:00.667Z,100263.50
2022-11-25T00:54:28.365Z,100255.94
2022-11-25T00:56:55.885Z,100253.25
2022-11-25T00:59:23.302Z,100245.97
2022-11-25T01:01:51.084Z,100258.53
2022-11-25T01:04:18.717Z,100248.84
2022-11-25T01:06:47.136Z,100240.09
2022-11-25T01:09:15.889Z,100236.75
2022-11-25T01:11:43.263Z,100240.53
2022-11-25T01:14:10.717Z,100250.50
2022-11-25T01:16:38.602Z,100245.06
2022-11-25T01:19:08.013Z,100237.94
2022-11-25T01:21:35.720Z,100236.34
2022-11-25T01:24:04.096Z,100229.28
2022-11-25T01:26:34.953Z,100233.16
2022-11-25T01:29:04.349Z,100225.69
2022-11-25T01:31:36.197Z,100222.94
2022-11-25T01:34:14.402Z,100221.75
2022-11-25T01:36:42.014Z,100223.38
2022-11-25T01:39:11.328Z,100221.22
2022-11-25T01:41:38.930Z,100222.28
2022-11-25T01:44:11.214Z,100226.63
2022-11-25T01:46:46.188Z,100213.94
2022-11-25T01:49:25.581Z,100233.75
2022-11-25T01:51:53.146Z,100231.38
2022-11-25T01:54:20.890Z,100240.09
2022-11-25T01:56:53.043Z,100231.84
2022-11-25T01:59:21.339Z,100229.22
2022-11-25T02:01:48.865Z,100230.84
2022-11-25T02:04:16.193Z,100236.88
2022-11-25T02:06:54.320Z,100221.47
2022-11-25T02:09:21.917Z,100223.53
2022-11-25T02:11:49.226Z,100228.34
2022-11-25T02:14:17.168Z,100221.97
2022-11-25T02:16:45.981Z,100214.03
2022-11-25T02:19:22.448Z,100225.13
2022-11-25T02:21:50.945Z,100228.25
2022-11-25T02:24:21.146Z,100229.22
2022-11-25T02:26:49.313Z,100217.84
2022-11-25T02:29:16.764Z,100226.09
2022-11-25T02:31:44.629Z,100228.09
2022-11-25T02:34:14.375Z,100239.41
2022-11-25T02:36:41.788Z,100238.72
2022-11-25T02:39:09.069Z,100238.88
2022-11-25T02:41:38.541Z,100240.09
2022-11-25T02:44:06.388Z,100258.00
2022-11-25T02:46:33.836Z,100250.66
2022-11-25T02:49:11.405Z,100255.72
2022-11-25T02:51:42.156Z,100253.94
2022-11-25T02:54:10.172Z,100244.78
2022-11-25T02:56:41.379Z,100247.69
2022-11-25T02:59:09.620Z,100248.03
2022-11-25T03:01:38.549Z,100248.50
2022-11-25T03:04:08.661Z,100247.97
2022-11-25T03:06:36.896Z,100238.66
2022-11-25T03:09:04.383Z,100235.97
2022-11-25T03:11:52.265Z,100239.50
2022-11-25T03:14:23.370Z,100250.09
2022-11-25T03:16:50.875Z,100259.28
2022-11-25T03:19:18.186Z,100255.00
2022-11-25T03:21:45.486Z,100262.63
2022-11-25T03:24:12.862Z,100267.16
2022-11-25T03:26:40.721Z,100265.63
2022-11-25T03:29:08.834Z,100263.09
2022-11-25T03:31:36.337Z,100261.50
2022-11-25T03:34:03.806Z,100264.09
2022-11-25T03:36:32.032Z,100269.69
2022-11-25T03:38:59.609Z,100282.06
2022-11-25T03:41:27.165Z,100277.78
2022-11-25T03:43:54.596Z,100276.03
2022-11-25T03:46:23.778Z,100280.56
2022-11-25T03:48:52.182Z,100281.38
2022-11-25T03:51:19.619Z,100277.19
2022-11-25T03:53:47.034Z,100278.09
2022-11-25T03:56:15.398Z,100266.25
2022-11-25T03:58:42.866Z,100275.56
2022-11-25T04:01:11.881Z,100267.31
2022-11-25T04:03:39.449Z,100270.38
2022-11-25T04:06:07.030Z,100268.00
2022-11-25T04:08:34.481Z,100273.28
2022-11-25T04:11:02.121Z,100267.84
2022-11-25T04:13:34.966Z,100258.28
2022-11-25T04:16:02.912Z,100266.31
2022-11-25T04:18:31.047Z,100262.19
2022-11-25T04:20:59.947Z,100262.47
2022-11-25T04:23:27.303Z,100271.81
2022-11-25T04:26:00.210Z,100265.63
2022-11-25T04:28:34.363Z,100271.81
2022-11-25T04:31:05.730Z,100281.44
2022-11-25T04:33:33.198Z,100276.59
2022-11-25T04:36:00.564Z,100281.03
2022-11-25T04:38:56.513Z,100287.84
2022-11-25T04:41:24.282Z,100288.59
2022-11-25T04:43:51.909Z,100296.03
2022-11-25T04:46:21.658Z,100286.56
2022-11-25T04:48:51.291Z,100277.94
2022-11-25T04:51:20.103Z,100288.53
2022-11-25T04:53:51.506Z,100285.66
2022-11-25T04:56:19.369Z,100281.72
2022-11-25T04:59:06.420Z,100295.19
2022-11-25T05:01:37.321Z,100301.34
2022-11-25T05:04:17.861Z,100302.56
2022-11-25T05:06:45.518Z,100297.69
2022-11-25T05:09:14.024Z,100287.00
2022-11-25T05:11:44.438Z,100297.88
2022-11-25T05:14:12.093Z,100280.00
2022-11-25T05:16:40.185Z,100299.13
2022-11-25T05:19:11.049Z,100310.19
2022-11-25T05:21:39.182Z,100306.56
2022-11-25T05:24:06.619Z,100317.41
2022-11-25T05:26:36.348Z,100302.38
2022-11-25T05:29:03.775Z,100301.94
2022-11-25T05:31:33.389Z,100306.34
2022-11-25T05:34:02.088Z,100307.13
2022-11-25T05:36:30.976Z,100300.09
2022-11-25T05:38:58.806Z,100305.56
2022-11-25T05:41:45.171Z,100315.72
2022-11-25T05:44:12.612Z,100321.81
2022-11-25T05:46:39.994Z,100321.22
2022-11-25T05:49:07.779Z,100317.72
2022-11-25T05:51:35.178Z,100326.03
2022-11-25T05:54:04.942Z,100310.84
2022-11-25T05:56:35.161Z,100335.19
2022-11-25T05:59:23.037Z,100328.53
2022-11-25T06:02:03.246Z,100331.91
2022-11-25T06:04:32.306Z,100328.34
2022-11-25T06:06:59.677Z,100334.56
2022-11-25T06:09:29.803Z,100334.16
2022-11-25T06:11:57.782Z,100334.25
2022-11-25T06:14:25.428Z,100338.16
2022-11-25T06:16:53.562Z,100335.00
2022-11-25T06:19:35.448Z,100338.19
2022-11-25T06:22:03.417Z,100327.38
2022-11-25T06:24:30.823Z,100317.91
2022-11-25T06:27:03.273Z,100326.72
2022-11-25T06:29:31.331Z,100327.16
2022-11-25T06:31:58.710Z,100340.41
2022-11-25T06:34:52.730Z,100340.06
2022-11-25T06:37:30.450Z,100336.38
2022-11-25T06:39:57.897Z,100345.91
2022-11-25T06:42:25.255Z,100361.13
2022-11-25T06:44:52.608Z,100353.88
2022-11-25T06:47:19.937Z,100355.78
2022-11-25T06:49:48.101Z,100363.31
2022-11-25T06:52:15.731Z,100372.72
2022-11-25T06:54:45.597Z,100372.94
2022-11-25T06:57:15.778Z,100369.19
2022-11-25T06:59:43.397Z,100363.56
2022-11-25T07:02:14.345Z,100365.50
2022-11-25T07:04:42.082Z,100365.03
2022-11-25T07:07:09.602Z,100367.63
2022-11-25T07:09:40.149Z,100369.06
2022-11-25T07:12:07.646Z,100370.59
2022-11-25T07:14:35.790Z,100364.81
2022-11-25T07:17:11.735Z,100362.53
2022-11-25T07:19:40.545Z,100366.91
2022-11-25T07:22:08.120Z,100376.16
2022-11-25T07:24:35.641Z,100367.50
2022-11-25T07:27:06.045Z,100369.03
2022-11-25T07:29:57.856Z,100364.19
2022-11-25T07:32:22.989Z,100367.25
2022-11-25T07:34:51.493Z,100364.97
2022-11-25T07:37:18.929Z,100370.53
2022-11-25T07:39:46.244Z,100374.75
2022-11-25T07:42:14.076Z,100371.34
2022-11-25T07:44:41.437Z,100355.63
2022-11-25T07:47:34.119Z,100363.19
2022-11-25T07:50:01.485Z,100370.53
2022-11-25T07:52:29.172Z,100371.31
2022-11-25T07:54:56.481Z,100365.88
2022-11-25T07:57:23.894Z,100371.19
2022-11-25T07:59:51.311Z,100370.88
2022-11-25T08:02:18.778Z,100376.84
2022-11-25T08:04:46.250Z,100374.69
2022-11-25T08:07:13.869Z,100371.06
2022-11-25T08:09:41.188Z,100373.41
2022-11-25T08:12:08.965Z,100369.31
2022-11-25T08:14:36.710Z,100375.03
2022-11-25T08:17:06.192Z,100371.66
2022-11-25T08:19:33.800Z,100377.84
2022-11-25T08:22:01.241Z,100377.16
2022-11-25T08:24:28.682Z,100380.13
2022-11-25T08:26:58.838Z,100373.28
2022-11-25T08:29:26.311Z,100370.59
2022-11-25T08:31:53.649Z,100371.31
2022-11-25T08:34:22.664Z,100385.91
2022-11-25T08:36:53.676Z,100383.97
2022-11-25T08:39:51.850Z,100387.41
2022-11-25T08:42:08.749Z,100387.19
2022-11-25T08:44:36.171Z,100389.63
2022-11-25T08:47:03.492Z,100393.31
2022-11-25T08:49:34.760Z,100393.59
2022-11-25T08:52:06.268Z,100389.28
2022-11-25T08:54:36.667Z,100386.91
2022-11-25T08:57:04.917Z,100403.69
2022-11-25T10:47:26.667Z,100403.13
2022-11-25T10:50:01.014Z,100399.47
2022-11-25T10:52:30.989Z,100403.34
2022-11-25T10:55:07.964Z,100400.44
2022-11-25T10:57:35.497Z,100410.63
2022-11-25T11:00:04.799Z,100400.69
2022-11-25T11:02:35.465Z,100399.06
2022-11-25T11:05:05.643Z,100403.06
2022-11-25T11:07:34.510Z,100392.59
2022-11-25T11:10:21.468Z,100395.34
2022-11-25T11:13:05.729Z,100400.91
2022-11-25T11:15:42.466Z,100400.97
2022-11-25T11:18:29.177Z,100400.00
2022-11-25T11:20:57.783Z,100400.53
2022-11-25T11:23:25.298Z,100401.75
2022-11-25T15:23:02.760Z,100471.16
2022-11-25T15:25:36.731Z,100475.59
2022-11-25T15:28:14.326Z,100470.00
2022-11-25T15:30:41.966Z,100477.06
2022-11-25T15:33:10.182Z,100474.63
2022-11-25T15:35:37.789Z,100476.84
2022-11-25T15:38:35.558Z,100482.63
2022-11-25T15:41:03.047Z,100482.09
2022-11-25T15:43:31.198Z,100477.94
2022-11-25T15:46:00.962Z,100480.25
2022-11-25T15:48:29.295Z,100479.66
2022-11-25T15:51:03.849Z,100472.25
2022-11-25T15:53:37.013Z,100476.13
2022-11-25T15:56:06.162Z,100483.72
2022-11-25T15:58:33.621Z,100474.78
2022-11-25T16:01:01.515Z,100484.84
2022-11-25T16:03:31.565Z,100476.09
2022-11-25T16:05:59.894Z,100480.38
2022-11-25T16:08:30.755Z,100476.44
2022-11-25T16:11:02.172Z,100487.63
2022-11-25T16:13:33.552Z,100483.31
2022-11-25T16:16:13.523Z,100479.66
2022-11-25T16:18:53.474Z,100477.03
2022-11-25T16:21:24.786Z,100482.41
2022-11-25T16:23:54.432Z,100480.72
2022-11-25T16:26:22.064Z,100475.28
2022-11-25T16:28:54.224Z,100474.94
2022-11-25T16:31:24.503Z,100474.75
2022-11-25T16:33:56.112Z,100473.00
2022-11-25T16:36:23.845Z,100471.78
2022-11-25T16:38:51.976Z,100475.97
2022-11-25T16:41:22.917Z,100471.63
2022-11-25T16:43:50.330Z,100473.69
2022-11-25T16:46:19.099Z,100468.09
2022-11-25T16:48:46.494Z,100475.50
2022-11-25T16:51:15.253Z,100472.84
2022-11-25T16:53:44.288Z,100477.97
2022-11-25T16:56:12.942Z,100471.78
2022-11-25T16:58:40.574Z,100473.44
2022-11-25T17:01:09.813Z,100480.72
2022-11-25T17:03:37.137Z,100478.06
2022-11-25T17:06:10.313Z,100478.06
2022-11-25T17:08:40.061Z,100484.19
2022-11-25T17:11:09.734Z,100492.22
2022-11-25T17:13:39.981Z,100491.47
2022-11-25T17:16:08.884Z,100490.59
2022-11-25T17:18:36.764Z,100498.91
2022-11-25T17:21:07.291Z,100486.47
2022-11-25T17:23:34.785Z,100502.75
2022-11-25T17:26:02.964Z,100509.19
2022-11-25T17:28:30.645Z,100503.75
2022-11-25T17:30:58.037Z,100509.72
2022-11-25T17:33:28.232Z,100511.38
2022-11-25T17:35:55.690Z,100513.75
2022-11-25T17:38:23.623Z,100508.28
2022-11-25T17:40:50.987Z,100512.75
2022-11-25T17:43:19.090Z,100516.25
2022-11-25T17:45:57.068Z,100510.16
2022-11-25T17:48:24.613Z,100506.53
2022-11-25T17:50:55.278Z,100505.69
2022-11-25T17:53:27.028Z,100510.75
2022-11-25T17:55:54.905Z,100506.44
2022-11-25T17:58:22.229Z,100510.50
2022-11-25T18:00:49.674Z,100515.03
2022-11-25T18:03:17.269Z,100512.25
2022-11-25T18:05:44.782Z,100506.00
2022-11-25T18:08:12.438Z,100506.78
2022-11-25T18:10:44.915Z,100505.81
2022-11-25T18:13:17.890Z,100513.25
2022-11-25T18:15:48.308Z,100505.81
2022-11-25T18:19:09.516Z,100509.41
2022-11-25T18:21:27.033Z,100520.03
2022-11-25T18:23:57.953Z,100524.66
2022-11-25T18:26:28.367Z,100514.91
2022-11-25T18:28:58.361Z,100525.03
2022-11-25T18:31:26.233Z,100517.97
2022-11-25T18:33:53.999Z,100516.78
2022-11-25T18:36:30.095Z,100520.31
2022-11-25T18:38:58.085Z,100530.03
2022-11-25T18:41:27.098Z,100532.41
2022-11-25T18:43:54.622Z,100539.94
2022-11-25T18:46:23.081Z,100534.19
2022-11-25T18:48:54.701Z,100531.44
2022-11-25T18:51:22.243Z,100546.91
2022-11-25T18:53:49.648Z,100547.00
2022-11-25T18:56:18.078Z,100549.75
2022-11-25T18:58:46.565Z,100560.50
2022-11-25T19:01:13.992Z,100559.84
2022-11-25T19:03:42.068Z,100557.50
2022-11-25T19:06:16.134Z,100567.69
2022-11-25T19:08:43.851Z,100571.28
2022-11-25T19:11:18.984Z,100579.88
2022-11-25T19:13:49.334Z,100579.41
2022-11-25T19:16:17.323Z,100579.69
2022-11-25T19:18:48.390Z,100587.34
2022-11-25T19:21:16.611Z,100587.63
2022-11-25T19:23:44.429Z,100588.78
2022-11-25T19:26:13.822Z,100590.63
2022-11-25T19:28:42.749Z,100597.66
2022-11-25T19:31:12.777Z,100599.00
2022-11-25T19:33:41.691Z,100606.59
